Time;durP1;ratioP1;P1;durP2;ratioP2;P2;SDS_P1;SDS_P2;PMS_P1;PMS_P2;Temp;Humidity;BMP_temperature;BMP_pressure;BME280_temperature;BME280_humidity;BME280_pressure;Samples;Min_cycle;Max_cycle;Signal;HPM_P1;HPM_P2
2024/02/23 00:01:07;;;;;;;2.72;0.47;;;9.30;68.80;10.90;98457.00;;;;5004151;28;20288;-71
2024/02/23 00:03:36;;;;;;;1.38;0.40;;;9.30;68.70;10.90;98456.00;;;;4994182;28;20264;-71
2024/02/23 00:06:04;;;;;;;4.13;0.95;;;9.30;68.70;11.00;98463.00;;;;4999585;28;20204;-71
2024/02/23 00:08:32;;;;;;;2.67;0.50;;;9.40;68.80;11.00;98459.00;;;;4992929;28;20288;-71
2024/02/23 00:10:59;;;;;;;2.30;0.65;;;9.40;68.80;11.00;98463.00;;;;4993046;28;20286;-71
2024/02/23 00:13:26;;;;;;;2.88;0.40;;;9.40;68.80;11.10;98460.00;;;;4992835;28;20284;-71
2024/02/23 00:15:53;;;;;;;2.33;0.60;;;9.40;68.90;11.10;98463.00;;;;4992739;28;20758;-71
2024/02/23 00:18:21;;;;;;;3.30;0.95;;;9.50;68.90;11.10;98465.00;;;;4992252;28;20216;-71
2024/02/23 00:20:48;;;;;;;3.20;0.68;;;9.50;68.90;11.10;98463.00;;;;5000525;28;20195;-71
2024/02/23 00:23:15;;;;;;;2.92;0.55;;;9.50;69.00;11.10;98466.00;;;;4993742;28;20212;-71
2024/02/23 00:25:44;;;;;;;1.77;0.80;;;9.50;69.10;11.20;98474.00;;;;4993834;28;20585;-71
2024/02/23 00:28:11;;;;;;;1.17;0.52;;;9.60;69.20;11.20;98479.00;;;;5001487;28;20296;-71
2024/02/23 00:30:38;;;;;;;1.08;0.43;;;9.60;69.20;11.20;98486.00;;;;5009528;28;20312;-71
2024/02/23 00:33:06;;;;;;;3.65;1.05;;;9.60;69.40;11.30;98488.00;;;;5004540;28;20738;-71
2024/02/23 00:35:33;;;;;;;4.45;0.68;;;9.70;69.60;11.30;98494.00;;;;4996670;28;20275;-71
2024/02/23 00:38:00;;;;;;;3.50;0.65;;;9.70;69.50;11.30;98487.00;;;;4994436;28;20252;-71
2024/02/23 00:40:27;;;;;;;4.22;1.17;;;9.70;69.40;11.40;98504.00;;;;4991771;28;20209;-72
2024/02/23 00:42:56;;;;;;;2.60;0.70;;;9.70;69.20;11.40;98500.00;;;;4998983;28;20274;-72
2024/02/23 00:45:23;;;;;;;3.13;1.00;;;9.80;69.00;11.40;98494.00;;;;4995740;28;20284;-71
2024/02/23 00:47:50;;;;;;;2.22;0.70;;;9.80;68.40;11.30;98493.00;;;;4991414;28;20289;-71
2024/02/23 00:50:17;;;;;;;3.97;0.73;;;9.80;68.10;11.30;98513.00;;;;4992565;28;20780;-71
2024/02/23 00:52:45;;;;;;;3.13;0.65;;;9.80;67.90;11.30;98516.00;;;;4992782;28;20204;-71
2024/02/23 00:55:12;;;;;;;1.75;0.60;;;9.70;67.90;11.30;98530.00;;;;4992495;28;20272;-71
2024/02/23 00:57:39;;;;;;;2.35;0.55;;;9.70;68.70;11.30;98535.00;;;;4991711;28;20586;-71
2024/02/23 01:00:10;;;;;;;1.80;0.73;;;9.70;68.20;11.30;98536.00;;;;5008794;28;20315;-71
2024/02/23 01:02:38;;;;;;;2.35;0.40;;;9.70;68.50;11.30;98529.00;;;;5011963;28;20292;-71
2024/02/23 01:05:09;;;;;;;2.25;0.65;;;9.70;68.60;11.30;98540.00;;;;5009475;28;20760;-71
2024/02/23 01:07:36;;;;;;;1.75;0.60;;;9.70;68.70;11.30;98542.00;;;;5005594;28;20674;-71
2024/02/23 01:10:03;;;;;;;2.22;0.55;;;9.70;68.80;11.40;98529.00;;;;4996731;28;20311;-71
2024/02/23 01:12:30;;;;;;;0.65;0.30;;;9.70;68.90;11.40;98552.00;;;;5010404;28;20284;-71
2024/02/23 01:14:57;;;;;;;1.23;0.63;;;9.70;68.90;11.40;98541.00;;;;5008080;28;20245;-71
2024/02/23 01:17:26;;;;;;;3.63;0.88;;;9.80;69.00;11.40;98544.00;;;;4991519;28;20223;-71
2024/02/23 01:19:53;;;;;;;1.80;0.38;;;9.80;69.00;11.50;98534.00;;;;4992010;28;20255;-71
2024/02/23 01:22:20;;;;;;;3.53;0.70;;;9.80;69.00;11.50;98564.00;;;;4991502;28;20236;-71
2024/02/23 01:24:47;;;;;;;5.80;0.70;;;9.80;69.00;11.50;98565.00;;;;4991669;28;20647;-71
2024/02/23 01:27:14;;;;;;;3.90;0.70;;;9.80;69.00;11.50;98555.00;;;;4998118;28;20292;-72
2024/02/23 01:29:41;;;;;;;2.03;0.73;;;9.80;69.00;11.50;98570.00;;;;4991956;28;20312;-71
2024/02/23 01:32:08;;;;;;;2.08;1.23;;;9.90;68.90;11.50;98567.00;;;;4991608;28;20260;-72
2024/02/23 01:34:37;;;;;;;2.80;0.73;;;9.90;68.90;11.50;98572.00;;;;5001914;28;20292;-71
2024/02/23 01:37:04;;;;;;;2.05;0.70;;;9.90;68.90;11.50;98572.00;;;;4995464;28;20193;-71
2024/02/23 01:39:31;;;;;;;1.60;0.75;;;9.90;68.90;11.50;98582.00;;;;5013353;28;20200;-71
2024/02/23 01:41:59;;;;;;;4.00;0.73;;;9.90;68.80;11.50;98595.00;;;;5013027;28;20204;-71
2024/02/23 01:44:26;;;;;;;4.07;0.88;;;9.90;68.70;11.50;98602.00;;;;5002816;28;20212;-71
2024/02/23 01:46:53;;;;;;;2.13;0.70;;;9.80;68.50;11.40;98599.00;;;;4999899;28;20292;-71
2024/02/23 01:49:22;;;;;;;2.38;0.68;;;9.90;68.50;11.40;98590.00;;;;5002353;28;20197;-72
2024/02/23 01:51:51;;;;;;;4.22;0.80;;;9.90;68.50;11.40;98593.00;;;;5015436;28;20215;-71
2024/02/23 01:54:18;;;;;;;1.67;0.73;;;9.80;68.40;11.40;98596.00;;;;5004808;28;20194;-71
2024/02/23 01:56:46;;;;;;;3.63;1.48;;;9.80;68.30;11.30;98592.00;;;;4998472;28;20661;-71
2024/02/23 01:59:14;;;;;;;1.05;0.43;;;9.80;68.30;11.30;98600.00;;;;4995344;28;20217;-72
2024/02/23 02:01:45;;;;;;;2.17;0.60;;;9.80;68.20;11.30;98606.00;;;;5005040;28;20299;-71
2024/02/23 02:04:12;;;;;;;1.70;0.70;;;9.70;68.20;11.30;98612.00;;;;5005900;28;20209;-72
2024/02/23 02:06:39;;;;;;;3.75;0.95;;;9.70;68.10;11.20;98619.00;;;;5015799;28;20280;-72
2024/02/23 02:09:08;;;;;;;2.17;0.50;;;9.70;68.10;11.10;98616.00;;;;5000540;28;20726;-72
2024/02/23 02:11:36;;;;;;;2.38;0.57;;;9.60;68.00;11.10;98614.00;;;;4995484;28;20205;-72
2024/02/23 02:14:03;;;;;;;2.47;0.77;;;9.60;68.70;11.10;98608.00;;;;4995091;28;20326;-71
2024/02/23 02:16:30;;;;;;;2.60;0.40;;;9.60;68.00;11.10;98611.00;;;;4994439;28;20288;-72
2024/02/23 02:18:57;;;;;;;1.90;0.88;;;9.60;68.00;11.00;98612.00;;;;5003630;28;20287;-71
2024/02/23 02:21:25;;;;;;;5.47;0.73;;;9.50;67.90;11.00;98617.00;;;;5000672;28;20208;-72
2024/02/23 02:23:52;;;;;;;3.40;0.52;;;9.50;67.90;11.00;98618.00;;;;4993850;28;20209;-72
2024/02/23 02:26:20;;;;;;;3.05;0.60;;;9.50;68.00;11.00;98611.00;;;;5000480;28;20284;-71
2024/02/23 02:28:47;;;;;;;1.63;0.65;;;9.40;68.50;11.00;98609.00;;;;5003023;28;20620;-72
2024/02/23 02:31:15;;;;;;;1.17;0.52;;;9.40;68.10;11.00;98620.00;;;;4994535;28;20232;-71
2024/02/23 02:33:42;;;;;;;2.13;0.73;;;9.40;68.10;11.00;98608.00;;;;5002312;28;20284;-71
2024/02/23 02:36:09;;;;;;;3.60;0.80;;;9.40;68.10;11.00;98618.00;;;;5002249;28;20205;-72
2024/02/23 02:38:37;;;;;;;1.55;0.82;;;9.40;68.10;11.00;98621.00;;;;5003882;28;20620;-72
2024/02/23 02:41:04;;;;;;;2.47;0.70;;;9.40;68.10;11.00;98629.00;;;;4994748;28;20285;-72
2024/02/23 02:43:33;;;;;;;2.33;1.05;;;9.40;68.20;11.00;98630.00;;;;4997634;28;20203;-73
2024/02/23 02:46:00;;;;;;;2.72;1.00;;;9.40;68.20;11.00;98638.00;;;;5003904;28;20279;-73
2024/02/23 02:48:27;;;;;;;2.88;0.85;;;9.40;68.10;11.00;98630.00;;;;5001109;28;20745;-73
2024/02/23 02:50:55;;;;;;;4.45;1.08;;;9.40;68.10;10.90;98628.00;;;;5002070;28;20253;-73
2024/02/23 02:53:22;;;;;;;3.55;0.88;;;9.40;68.10;11.00;98629.00;;;;4994581;28;20202;-73
2024/02/23 02:55:49;;;;;;;2.80;1.10;;;9.40;68.10;11.00;98632.00;;;;4994548;28;20300;-73
2024/02/23 02:58:16;;;;;;;3.35;0.80;;;9.40;68.10;10.90;98641.00;;;;4994096;28;20268;-72
2024/02/23 03:00:45;;;;;;;3.25;0.88;;;9.40;68.00;10.90;98639.00;;;;4994664;28;20208;-73
2024/02/23 03:03:12;;;;;;;2.30;0.55;;;9.40;68.10;10.90;98637.00;;;;4994415;28;20264;-72
2024/02/23 03:05:40;;;;;;;5.93;0.80;;;9.40;68.00;10.90;98642.00;;;;4995824;28;20198;-72
2024/02/23 03:08:08;;;;;;;3.38;1.33;;;9.40;67.90;10.90;98647.00;;;;5002547;28;20229;-72
2024/02/23 03:10:35;;;;;;;6.25;1.40;;;9.30;67.90;10.90;98648.00;;;;4996962;28;20624;-73
2024/02/23 03:13:02;;;;;;;5.10;0.98;;;9.30;67.90;10.80;98646.00;;;;4997399;28;20652;-72
2024/02/23 03:15:29;;;;;;;2.05;0.68;;;9.30;67.90;10.80;98652.00;;;;5011082;28;20225;-73
2024/02/23 03:18:00;;;;;;;1.75;0.90;;;9.30;67.80;10.80;98654.00;;;;4997871;28;20221;-73
2024/02/23 03:20:27;;;;;;;3.20;0.50;;;9.30;67.70;10.80;98651.00;;;;5014057;28;20380;-73
2024/02/23 03:22:55;;;;;;;4.70;0.70;;;9.30;67.70;10.80;98651.00;;;;5011478;28;20229;-73
2024/02/23 03:25:22;;;;;;;2.50;0.93;;;9.20;67.70;10.80;98659.00;;;;4995087;28;20617;-73
2024/02/23 03:27:49;;;;;;;4.75;0.60;;;9.20;68.40;10.80;98665.00;;;;4999251;28;20198;-73
2024/02/23 03:30:16;;;;;;;1.85;0.55;;;9.20;67.70;10.80;98656.00;;;;4994308;28;20221;-73
2024/02/23 03:32:43;;;;;;;2.92;1.08;;;9.20;67.80;10.70;98663.00;;;;4994030;28;20280;-70
2024/02/23 03:35:12;;;;;;;1.42;0.63;;;9.20;67.80;10.70;98669.00;;;;4993414;28;20268;-70
2024/02/23 03:37:39;;;;;;;4.28;0.77;;;9.20;67.90;10.70;98666.00;;;;4993584;28;20289;-73
2024/02/23 03:40:10;;;;;;;1.98;0.40;;;9.20;67.80;10.70;98673.00;;;;4993323;28;20232;-73
2024/02/23 03:42:37;;;;;;;1.50;0.63;;;9.10;67.90;10.70;98668.00;;;;4994373;28;20197;-73
2024/02/23 03:45:06;;;;;;;1.90;0.77;;;9.10;67.80;10.70;98672.00;;;;4998336;28;20292;-74
2024/02/23 03:47:33;;;;;;;3.50;0.95;;;9.10;67.90;10.70;98672.00;;;;4992833;28;20244;-73
2024/02/23 03:50:00;;;;;;;3.28;0.60;;;9.10;68.00;10.70;98666.00;;;;4997129;28;20282;-72
2024/02/23 03:52:28;;;;;;;2.05;0.90;;;9.10;68.00;10.70;98674.00;;;;5012029;28;20249;-73
2024/02/23 03:54:55;;;;;;;1.15;0.38;;;9.10;67.90;10.70;98670.00;;;;4996300;28;20297;-72
2024/02/23 03:57:22;;;;;;;1.45;0.68;;;9.10;67.90;10.70;98674.00;;;;4996742;28;20623;-72
2024/02/23 03:59:56;;;;;;;3.72;1.15;;;9.10;67.90;10.60;98678.00;;;;4996648;28;20300;-73
2024/02/23 04:02:23;;;;;;;1.98;0.95;;;9.10;67.90;10.70;98686.00;;;;4993185;28;20309;-73
2024/02/23 04:04:51;;;;;;;1.35;0.60;;;9.10;67.90;10.60;98691.00;;;;4992710;28;20225;-73
2024/02/23 04:07:18;;;;;;;1.50;0.90;;;9.10;67.90;10.60;98683.00;;;;5002175;28;20738;-73
2024/02/23 04:09:52;;;;;;;2.25;0.88;;;9.10;67.90;10.60;98685.00;;;;4993340;28;20242;-73
2024/02/23 04:12:19;;;;;;;1.17;0.63;;;9.10;67.90;10.60;98679.00;;;;5000178;28;20204;-74
2024/02/23 04:14:46;;;;;;;3.33;0.70;;;9.00;67.90;10.60;98688.00;;;;5001801;28;20229;-73
2024/02/23 04:17:13;;;;;;;1.25;0.63;;;9.00;67.90;10.60;98680.00;;;;4993287;28;20208;-73
2024/02/23 04:19:42;;;;;;;5.38;1.10;;;9.00;67.80;10.60;98692.00;;;;4993180;28;20734;-73
2024/02/23 04:22:10;;;;;;;3.10;0.85;;;9.00;67.80;10.60;98689.00;;;;4992710;28;20233;-72
2024/02/23 04:24:40;;;;;;;1.08;0.60;;;9.00;67.80;10.50;98693.00;;;;4992786;28;20407;-73
2024/02/23 04:27:09;;;;;;;3.97;1.23;;;9.00;67.80;10.50;98703.00;;;;4998834;28;20208;-73
2024/02/23 04:29:36;;;;;;;2.83;1.02;;;9.00;67.80;10.50;98701.00;;;;4992354;28;20324;-74
2024/02/23 04:32:05;;;;;;;4.13;1.13;;;8.90;67.70;10.50;98698.00;;;;4991997;28;20312;-73
2024/02/23 04:34:32;;;;;;;3.10;0.77;;;8.90;67.70;10.50;98705.00;;;;4993448;28;20270;-73
2024/02/23 04:36:59;;;;;;;2.25;0.63;;;8.90;67.70;10.40;98707.00;;;;4994232;28;20297;-73
2024/02/23 04:39:26;;;;;;;2.33;0.82;;;8.90;67.70;10.40;98707.00;;;;5012490;28;20286;-72
2024/02/23 04:41:54;;;;;;;3.28;0.60;;;8.90;67.80;10.40;98706.00;;;;5007606;28;20467;-73
2024/02/23 04:44:24;;;;;;;1.65;0.70;;;8.90;67.90;10.40;98711.00;;;;4992379;28;20659;-73
2024/02/23 04:46:51;;;;;;;1.48;0.52;;;8.90;67.90;10.40;98705.00;;;;4992498;28;20279;-73
2024/02/23 04:49:18;;;;;;;2.83;1.00;;;8.90;68.00;10.40;98715.00;;;;4991677;28;20743;-71
2024/02/23 04:51:45;;;;;;;3.55;0.98;;;8.80;68.00;10.40;98717.00;;;;4992724;28;20653;-71
2024/02/23 04:54:12;;;;;;;1.55;0.70;;;8.90;68.20;10.50;98723.00;;;;4996748;28;20201;-71
2024/02/23 04:56:39;;;;;;;2.55;0.70;;;8.80;68.20;10.50;98721.00;;;;5003695;28;20280;-71
2024/02/23 04:59:06;;;;;;;1.33;0.68;;;8.90;68.30;10.50;98716.00;;;;4992092;28;20222;-71
2024/02/23 05:01:38;;;;;;;2.92;0.90;;;8.90;68.40;10.50;98725.00;;;;5006757;28;20201;-71
2024/02/23 05:04:06;;;;;;;1.25;0.68;;;8.90;68.50;10.60;98726.00;;;;5011935;28;20741;-71
2024/02/23 05:06:33;;;;;;;2.67;0.75;;;8.90;68.50;10.60;98724.00;;;;5008668;28;20196;-71
2024/02/23 05:09:00;;;;;;;2.55;0.90;;;8.90;68.50;10.70;98725.00;;;;4993670;28;20284;-70
2024/02/23 05:11:27;;;;;;;4.10;0.88;;;9.00;68.60;10.70;98725.00;;;;4991286;28;20229;-71
2024/02/23 05:13:54;;;;;;;3.30;0.95;;;9.00;68.60;10.70;98723.00;;;;5006582;28;20307;-71
2024/02/23 05:16:21;;;;;;;3.03;0.90;;;9.10;68.70;10.80;98726.00;;;;5006657;28;20292;-71
2024/02/23 05:18:50;;;;;;;1.30;0.70;;;9.10;68.70;10.80;98721.00;;;;4991756;28;20288;-71
2024/02/23 05:21:17;;;;;;;1.40;0.63;;;9.10;68.60;10.80;98717.00;;;;4991959;28;20664;-71
2024/02/23 05:23:46;;;;;;;2.72;0.60;;;9.10;68.50;10.90;98705.00;;;;4995822;28;20543;-71
2024/02/23 05:26:13;;;;;;;2.72;0.68;;;9.20;68.50;10.90;98711.00;;;;4997403;28;20194;-71
2024/02/23 05:28:40;;;;;;;2.33;0.93;;;9.20;68.50;10.90;98708.00;;;;4995319;28;20284;-71
2024/02/23 05:31:07;;;;;;;4.15;0.85;;;9.30;68.50;10.90;98718.00;;;;4990871;28;20321;-71
2024/02/23 05:33:34;;;;;;;2.75;0.98;;;9.30;68.50;11.00;98718.00;;;;4991821;28;20205;-71
2024/02/23 05:36:04;;;;;;;4.72;0.90;;;9.30;68.50;11.00;98715.00;;;;4993525;28;20288;-71
2024/02/23 05:38:31;;;;;;;3.00;1.20;;;9.30;68.40;11.00;98722.00;;;;5011150;28;20303;-71
2024/02/23 05:40:58;;;;;;;2.05;1.30;;;9.40;68.40;11.00;98716.00;;;;5000248;28;20208;-71
2024/02/23 05:43:25;;;;;;;1.67;1.05;;;9.40;68.30;11.00;98716.00;;;;4992045;28;20649;-72
2024/02/23 05:45:54;;;;;;;2.60;0.98;;;9.40;68.30;11.10;98713.00;;;;4998504;28;20288;-71
2024/02/23 05:48:21;;;;;;;3.30;1.35;;;9.40;68.20;11.10;98721.00;;;;4992000;28;20202;-71
2024/02/23 05:50:48;;;;;;;2.50;1.33;;;9.40;68.10;11.10;98712.00;;;;4991318;28;20218;-71
2024/02/23 05:53:16;;;;;;;4.28;1.27;;;9.50;68.20;11.10;98729.00;;;;4991647;28;20225;-72
2024/02/23 05:55:43;;;;;;;2.65;1.10;;;9.50;68.10;11.10;98707.00;;;;4995278;28;20292;-71
2024/02/23 05:58:13;;;;;;;2.53;1.02;;;9.50;68.10;11.20;98725.00;;;;5008922;28;20287;-72
2024/02/23 06:00:40;;;;;;;4.07;1.92;;;9.50;68.00;11.20;98714.00;;;;4995988;28;20690;-72
2024/02/23 06:03:07;;;;;;;2.50;1.27;;;9.50;67.90;11.20;98715.00;;;;4994627;28;20284;-72
2024/02/23 06:05:34;;;;;;;2.05;1.13;;;9.50;67.80;11.20;98710.00;;;;5000269;28;20221;-72
2024/02/23 06:08:02;;;;;;;2.95;1.00;;;9.60;67.90;11.20;98715.00;;;;4991291;28;20197;-72
2024/02/23 06:10:31;;;;;;;3.40;1.17;;;9.60;67.90;11.20;98726.00;;;;5007390;28;20197;-73
2024/02/23 06:12:58;;;;;;;1.95;0.75;;;9.60;67.80;11.20;98730.00;;;;4992040;28;20297;-72
2024/02/23 06:15:25;;;;;;;1.75;0.68;;;9.60;67.80;11.20;98735.00;;;;5009866;28;20257;-72
2024/02/23 06:17:52;;;;;;;4.10;1.35;;;9.60;67.70;11.20;98730.00;;;;5010288;28;20288;-72
2024/02/23 06:20:19;;;;;;;2.58;0.80;;;9.60;67.60;11.30;98725.00;;;;5009649;28;20209;-72
2024/02/23 06:22:47;;;;;;;2.60;1.17;;;9.60;67.70;11.30;98721.00;;;;5008920;28;20208;-71
2024/02/23 06:25:14;;;;;;;4.32;0.82;;;9.60;67.70;11.30;98739.00;;;;4995883;28;20297;-72
2024/02/23 06:27:42;;;;;;;3.03;0.70;;;9.70;67.70;11.30;98736.00;;;;4997400;28;20198;-74
2024/02/23 06:30:11;;;;;;;2.70;1.05;;;9.70;67.60;11.30;98734.00;;;;4995937;28;20280;-72
2024/02/23 06:32:38;;;;;;;2.10;0.88;;;9.70;67.60;11.30;98738.00;;;;4996051;28;20233;-72
2024/02/23 06:35:07;;;;;;;1.75;0.85;;;9.70;67.60;11.30;98736.00;;;;4999646;28;20289;-73
2024/02/23 06:37:34;;;;;;;2.15;0.82;;;9.70;67.50;11.30;98735.00;;;;4996110;28;20197;-72
2024/02/23 06:40:01;;;;;;;2.15;0.73;;;9.80;67.40;11.30;98743.00;;;;4995031;28;20210;-72
2024/02/23 06:42:28;;;;;;;3.08;1.02;;;9.80;67.30;11.40;98730.00;;;;4994414;28;20721;-72
2024/02/23 06:44:57;;;;;;;1.42;0.80;;;9.80;67.30;11.40;98729.00;;;;4994928;28;20309;-72
2024/02/23 06:47:24;;;;;;;3.20;0.77;;;9.80;67.90;11.40;98733.00;;;;4996141;28;20229;-72
2024/02/23 06:49:53;;;;;;;5.05;0.88;;;9.80;67.30;11.40;98737.00;;;;5002118;28;20208;-72
2024/02/23 06:52:20;;;;;;;4.68;1.13;;;9.80;67.20;11.40;98733.00;;;;5012170;28;20311;-72
2024/02/23 06:54:47;;;;;;;2.67;0.75;;;9.80;67.10;11.40;98726.00;;;;5003816;28;20288;-72
2024/02/23 06:57:14;;;;;;;3.85;0.75;;;9.90;67.10;11.50;98737.00;;;;4996700;28;20607;-72
2024/02/23 06:59:41;;;;;;;1.88;1.00;;;9.90;67.10;11.50;98724.00;;;;4995160;28;20241;-72
2024/02/23 07:02:09;;;;;;;3.28;1.48;;;9.90;67.10;11.50;98727.00;;;;4994784;28;20208;-72
2024/02/23 07:04:36;;;;;;;2.08;0.90;;;9.90;67.00;11.50;98726.00;;;;4992914;28;20268;-72
2024/02/23 07:07:07;;;;;;;3.50;0.93;;;9.90;67.00;11.60;98731.00;;;;4995222;28;20456;-72
2024/02/23 07:09:34;;;;;;;2.00;0.88;;;9.90;67.00;11.60;98731.00;;;;4994107;28;20201;-72
2024/02/23 07:12:01;;;;;;;2.35;1.05;;;10.00;66.90;11.60;98725.00;;;;5001315;28;20300;-72
2024/02/23 07:14:28;;;;;;;1.50;1.02;;;10.00;67.70;11.60;98728.00;;;;5004748;28;20214;-72
2024/02/23 07:16:55;;;;;;;2.80;0.77;;;10.00;67.00;11.70;98732.00;;;;4997324;28;20293;-72
2024/02/23 07:19:24;;;;;;;3.75;1.80;;;10.00;66.90;11.70;98739.00;;;;4999224;28;20307;-72
2024/02/23 07:21:52;;;;;;;1.35;0.70;;;10.00;66.80;11.70;98732.00;;;;5007158;28;20759;-73
2024/02/23 07:24:19;;;;;;;2.75;0.80;;;10.10;66.70;11.70;98737.00;;;;4999410;28;20225;-72
2024/02/23 07:26:46;;;;;;;2.75;0.95;;;10.10;66.80;11.70;98734.00;;;;5004344;28;20291;-73
2024/02/23 07:29:13;;;;;;;3.00;1.35;;;10.10;66.80;11.80;98730.00;;;;4994233;28;20293;-73
2024/02/23 07:31:40;;;;;;;3.03;0.88;;;10.10;66.70;11.80;98729.00;;;;4997414;28;20309;-73
2024/02/23 07:34:08;;;;;;;5.03;1.27;;;10.20;66.70;11.80;98734.00;;;;5005086;28;20287;-71
2024/02/23 07:36:37;;;;;;;1.90;0.68;;;10.20;66.60;11.80;98733.00;;;;5009052;28;20683;-71
2024/02/23 07:39:04;;;;;;;2.30;1.00;;;10.20;66.70;11.90;98727.00;;;;5016152;28;20272;-72
2024/02/23 07:41:31;;;;;;;4.72;1.10;;;10.30;66.60;11.90;98721.00;;;;5019146;28;20230;-71
2024/02/23 07:43:58;;;;;;;2.85;0.88;;;10.30;66.60;11.90;98725.00;;;;5015445;28;20304;-72
2024/02/23 07:46:25;;;;;;;1.25;0.70;;;10.30;66.50;12.00;98705.00;;;;4998342;28;20216;-71
2024/02/23 07:48:52;;;;;;;3.22;1.10;;;10.40;66.40;12.00;98716.00;;;;4997460;28;20201;-71
2024/02/23 07:51:19;;;;;;;3.58;1.10;;;10.40;66.40;12.00;98714.00;;;;5003328;28;20217;-72
2024/02/23 07:53:48;;;;;;;1.90;0.88;;;10.40;66.50;12.00;98720.00;;;;4993586;28;20198;-72
2024/02/23 07:56:15;;;;;;;4.75;1.63;;;10.40;66.30;12.00;98719.00;;;;5001820;28;20296;-72
2024/02/23 07:58:42;;;;;;;3.03;1.38;;;10.50;66.30;12.10;98716.00;;;;4998614;28;20647;-72
2024/02/23 08:01:09;;;;;;;6.10;1.27;;;10.40;66.10;12.10;98711.00;;;;5000565;28;20685;-72
2024/02/23 08:03:36;;;;;;;2.67;0.95;;;10.50;66.00;12.10;98710.00;;;;4993003;28;20300;-72
2024/02/23 08:06:04;;;;;;;4.53;0.90;;;10.50;65.90;12.10;98712.00;;;;4996434;28;20197;-73
2024/02/23 08:08:34;;;;;;;2.30;0.80;;;10.50;66.00;12.10;98702.00;;;;5004519;28;20675;-72
2024/02/23 08:11:03;;;;;;;4.05;1.10;;;10.50;65.60;12.20;98701.00;;;;4994584;28;20207;-71
2024/02/23 08:13:30;;;;;;;1.63;0.93;;;10.60;65.80;12.20;98698.00;;;;5011460;28;20648;-73
2024/02/23 08:15:58;;;;;;;2.92;0.90;;;10.60;65.90;12.30;98702.00;;;;5003453;28;20316;-71
2024/02/23 08:18:26;;;;;;;3.53;0.90;;;10.60;65.80;12.30;98703.00;;;;5009023;28;20201;-72
2024/02/23 08:20:53;;;;;;;2.83;1.27;;;10.70;65.80;12.30;98695.00;;;;4993286;28;20201;-72
2024/02/23 08:23:22;;;;;;;2.28;1.20;;;10.60;65.60;12.30;98695.00;;;;4993686;28;20280;-72
2024/02/23 08:25:50;;;;;;;5.95;1.05;;;10.70;65.30;12.30;98694.00;;;;5005414;28;20291;-72
2024/02/23 08:28:18;;;;;;;2.03;0.90;;;10.70;65.30;12.30;98695.00;;;;4992967;28;20561;-72
2024/02/23 08:30:45;;;;;;;2.58;0.80;;;10.70;65.50;12.30;98692.00;;;;4993066;28;20281;-73
2024/02/23 08:33:13;;;;;;;1.90;0.63;;;10.70;65.40;12.30;98687.00;;;;4991458;28;20225;-72
2024/02/23 08:35:40;;;;;;;4.63;1.00;;;10.70;65.50;12.40;98685.00;;;;4993417;28;20296;-72
2024/02/23 08:38:07;;;;;;;1.20;0.52;;;10.70;65.20;12.40;98680.00;;;;5000241;28;20252;-72
2024/02/23 08:40:35;;;;;;;3.38;1.10;;;10.80;65.40;12.40;98687.00;;;;4993160;28;20201;-73
2024/02/23 08:43:03;;;;;;;4.50;0.80;;;10.80;65.30;12.40;98679.00;;;;4992492;28;20292;-72
2024/02/23 08:45:31;;;;;;;5.55;1.02;;;10.80;65.20;12.40;98686.00;;;;4996700;28;20198;-72
2024/02/23 08:47:59;;;;;;;3.25;0.70;;;10.80;65.30;12.40;98683.00;;;;4999824;28;20197;-73
2024/02/23 08:50:26;;;;;;;3.17;0.85;;;10.80;65.30;12.40;98685.00;;;;4996963;28;20751;-72
2024/02/23 08:52:53;;;;;;;3.17;1.00;;;10.80;65.10;12.40;98694.00;;;;4992570;28;20325;-73
2024/02/23 08:55:21;;;;;;;3.03;0.75;;;10.80;65.00;12.40;98681.00;;;;4995051;28;20276;-72
2024/02/23 08:57:48;;;;;;;1.77;0.50;;;10.80;65.10;12.40;98685.00;;;;4998804;28;20228;-73
2024/02/23 09:00:16;;;;;;;2.58;1.02;;;10.80;65.00;12.40;98690.00;;;;5017229;28;20304;-72
2024/02/23 09:02:44;;;;;;;3.78;0.70;;;10.80;65.20;12.40;98683.00;;;;5016945;28;20250;-72
2024/02/23 09:05:11;;;;;;;2.05;0.55;;;10.80;65.30;12.40;98691.00;;;;5012162;28;20325;-72
2024/02/23 09:07:38;;;;;;;5.57;0.60;;;10.80;65.30;12.40;98691.00;;;;4994284;28;20289;-72
2024/02/23 09:10:06;;;;;;;2.78;0.82;;;10.80;65.30;12.50;98690.00;;;;4992519;28;20194;-72
2024/02/23 09:12:33;;;;;;;5.18;0.98;;;10.80;65.20;12.50;98695.00;;;;4997552;28;20308;-72
2024/02/23 09:15:01;;;;;;;2.45;0.75;;;10.80;65.20;12.50;98708.00;;;;5001207;28;20287;-72
2024/02/23 09:17:28;;;;;;;2.58;0.80;;;10.90;65.50;12.50;98696.00;;;;5009459;28;20228;-72
2024/02/23 09:19:56;;;;;;;4.18;1.05;;;10.90;65.50;12.60;98700.00;;;;5021257;28;20267;-72
2024/02/23 09:22:23;;;;;;;3.90;0.73;;;10.90;65.40;12.60;98700.00;;;;5020934;28;20594;-72
2024/02/23 09:24:50;;;;;;;1.48;0.55;;;10.90;65.20;12.60;98702.00;;;;5021610;28;20196;-72
2024/02/23 09:27:21;;;;;;;3.30;1.20;;;11.00;65.30;12.60;98700.00;;;;5003938;28;20202;-72
2024/02/23 09:29:48;;;;;;;1.48;0.80;;;11.00;65.30;12.60;98692.00;;;;5014616;28;20265;-72
2024/02/23 09:32:15;;;;;;;3.67;0.77;;;11.00;65.40;12.70;98709.00;;;;5011464;28;20501;-72
2024/02/23 09:34:43;;;;;;;2.20;0.85;;;11.00;65.30;12.70;98702.00;;;;5002079;28;20205;-72
2024/02/23 09:37:11;;;;;;;1.20;0.40;;;11.10;65.20;12.70;98700.00;;;;5002743;28;20204;-72
2024/02/23 09:39:38;;;;;;;2.10;0.50;;;11.00;65.10;12.70;98712.00;;;;5003096;28;20302;-72
2024/02/23 09:42:10;;;;;;;3.05;0.75;;;11.10;65.10;12.70;98712.00;;;;4999803;28;20292;-72
2024/02/23 09:44:38;;;;;;;5.03;0.88;;;11.10;64.80;12.70;98720.00;;;;4993902;28;20284;-72
2024/02/23 09:47:10;;;;;;;4.82;0.68;;;11.10;65.00;12.70;98725.00;;;;4995925;28;20289;-72
2024/02/23 09:49:40;;;;;;;4.43;0.82;;;11.10;64.90;12.60;98718.00;;;;4998914;28;20285;-73
2024/02/23 09:52:11;;;;;;;2.42;0.60;;;11.10;64.60;12.60;98736.00;;;;4992917;28;20236;-74
2024/02/23 09:54:39;;;;;;;0.90;0.38;;;11.10;64.70;12.60;98743.00;;;;5001913;28;20297;-74
2024/02/23 09:57:09;;;;;;;2.55;0.90;;;11.10;64.60;12.50;98726.00;;;;4998264;28;20202;-72
2024/02/23 09:59:37;;;;;;;1.40;0.60;;;11.00;64.70;12.60;98739.00;;;;5007367;28;20303;-72
2024/02/23 10:02:10;;;;;;;1.52;0.55;;;11.00;65.10;12.50;98746.00;;;;4998783;28;20220;-72
2024/02/23 10:04:39;;;;;;;5.20;0.82;;;11.00;65.10;12.60;98735.00;;;;4994768;28;20197;-72
2024/02/23 10:07:06;;;;;;;1.60;0.68;;;11.00;65.30;12.60;98741.00;;;;4996037;28;20614;-72
2024/02/23 10:09:35;;;;;;;1.27;0.63;;;11.00;65.40;12.60;98723.00;;;;4993698;28;20284;-73
2024/02/23 10:12:02;;;;;;;1.52;0.47;;;11.10;65.50;12.60;98732.00;;;;4997264;28;22227;-72
2024/02/23 10:14:30;;;;;;;2.05;0.70;;;11.10;65.30;12.70;98747.00;;;;4995671;28;20229;-72
2024/02/23 10:16:57;;;;;;;1.98;0.43;;;11.10;65.50;12.70;98737.00;;;;4994208;28;20295;-71
2024/02/23 10:19:28;;;;;;;0.75;0.38;;;11.10;65.50;12.80;98746.00;;;;5003547;28;20281;-74
2024/02/23 10:21:56;;;;;;;2.60;0.80;;;11.20;65.70;12.80;98745.00;;;;4996202;28;20256;-71
2024/02/23 10:24:24;;;;;;;2.55;0.47;;;11.20;65.70;12.90;98747.00;;;;5007221;28;20710;-73
2024/02/23 10:26:53;;;;;;;1.48;0.57;;;11.20;65.70;12.90;98743.00;;;;5000438;28;20260;-72
2024/02/23 10:29:20;;;;;;;2.95;0.88;;;11.30;65.60;12.90;98748.00;;;;5011172;28;20198;-73
2024/02/23 10:31:50;;;;;;;2.83;0.88;;;11.30;65.50;13.00;98744.00;;;;4999594;28;20201;-72
2024/02/23 10:34:20;;;;;;;1.70;0.98;;;11.30;65.30;12.90;98748.00;;;;5008858;28;20193;-72
2024/02/23 10:36:50;;;;;;;2.88;1.00;;;11.40;65.30;12.90;98747.00;;;;5009080;28;20288;-72
2024/02/23 10:39:19;;;;;;;2.05;0.73;;;11.40;65.20;12.90;98755.00;;;;5018288;28;20205;-72
2024/02/23 10:41:56;;;;;;;15.30;1.40;;;11.40;65.20;12.90;98766.00;;;;5002022;28;20207;-74
2024/02/23 10:44:25;;;;;;;3.63;1.10;;;11.40;65.00;12.90;98776.00;;;;5020483;28;20203;-74
2024/02/23 10:46:54;;;;;;;3.42;0.90;;;11.40;65.70;12.90;98780.00;;;;5022575;28;20680;-71
2024/02/23 10:49:26;;;;;;;2.05;0.77;;;11.30;65.10;12.90;98780.00;;;;5003193;28;20198;-71
2024/02/23 10:51:54;;;;;;;2.13;1.13;;;11.40;65.40;13.00;98783.00;;;;4994435;28;20213;-72
2024/02/23 10:54:22;;;;;;;2.13;1.05;;;11.40;65.30;13.00;98783.00;;;;5001428;28;20636;-71
2024/02/23 10:56:52;;;;;;;2.72;0.70;;;11.40;65.20;13.00;98781.00;;;;5001769;28;20197;-71
2024/02/23 10:59:22;;;;;;;2.13;0.80;;;11.40;65.30;13.10;98783.00;;;;4997314;28;20221;-71
2024/02/23 11:01:52;;;;;;;2.85;0.90;;;11.40;65.30;13.10;98791.00;;;;4995154;28;20581;-71